createdAt,value
2023-03-23T16:01:31.404Z,99597.54
2023-03-23T16:06:35.448Z,99602.48
2023-03-23T16:11:38.331Z,99612.64
2023-03-23T16:16:44.560Z,99619.85
2023-03-23T16:21:46.137Z,99625.80
2023-03-23T16:26:47.657Z,99629.84
2023-03-23T16:31:49.397Z,99634.44
2023-03-23T16:36:50.936Z,99633.47
2023-03-23T16:41:52.563Z,99634.95
2023-03-23T16:46:54.529Z,99635.42
2023-03-23T16:51:56.463Z,99635.15
2023-03-23T16:56:58.516Z,99643.29
2023-03-23T17:02:03.970Z,99647.00
2023-03-23T17:07:05.861Z,99649.63
2023-03-23T17:12:07.454Z,99661.45
2023-03-23T17:17:12.512Z,99670.98
2023-03-23T17:22:14.045Z,99669.63
2023-03-23T17:27:17.819Z,99677.25
2023-03-23T17:32:20.737Z,99669.89
2023-03-23T17:37:22.705Z,99665.63
2023-03-23T17:42:24.413Z,99664.54
2023-03-23T17:47:25.983Z,99673.89
2023-03-23T17:52:27.942Z,99671.46
2023-03-23T17:57:29.570Z,99685.30
2023-03-23T18:02:31.735Z,99697.31
2023-03-23T18:07:33.399Z,99707.34
2023-03-23T18:12:35.312Z,99721.16
2023-03-23T18:17:37.523Z,99733.22
2023-03-23T18:22:39.306Z,99739.31
2023-03-23T18:27:42.064Z,99751.85
2023-03-23T18:32:44.155Z,99754.12
2023-03-23T18:37:48.123Z,99755.23
2023-03-23T18:42:50.183Z,99753.54
2023-03-23T18:47:54.210Z,99752.62
2023-03-23T18:52:56.904Z,99756.52
2023-03-23T18:58:00.625Z,99759.13
2023-03-23T19:03:02.515Z,99761.48
2023-03-23T19:08:06.121Z,99766.38
2023-03-23T19:13:09.516Z,99762.69
2023-03-23T19:18:11.227Z,99758.14
2023-03-23T19:23:13.458Z,99757.64
2023-03-23T19:33:20.351Z,99764.59
2023-03-23T19:38:23.012Z,99763.45
2023-03-23T19:43:26.523Z,99765.24
2023-03-23T19:48:31.144Z,99768.88
2023-03-23T19:53:33.452Z,99774.74
2023-03-23T19:58:35.500Z,99785.66
2023-03-23T20:03:38.002Z,99779.05
2023-03-23T20:08:47.699Z,99774.66
2023-03-23T20:13:49.859Z,99764.90
2023-03-23T20:18:52.907Z,99760.69
2023-03-23T20:23:58.630Z,99763.23
2023-03-23T20:29:01.317Z,99752.38
2023-03-23T20:34:09.554Z,99751.17
2023-03-23T20:39:15.090Z,99756.98
2023-03-23T20:44:18.433Z,99760.50
2023-03-23T20:49:21.281Z,99754.95
2023-03-23T20:54:24.676Z,99744.08
2023-03-23T20:59:27.146Z,99748.21
2023-03-23T21:04:30.187Z,99745.17
2023-03-23T21:09:33.078Z,99750.54
2023-03-23T21:14:40.122Z,99745.80
2023-03-23T21:19:41.774Z,99735.45
2023-03-23T21:24:43.405Z,99736.26
2023-03-23T21:29:45.031Z,99733.64
2023-03-23T21:34:47.690Z,99734.28
2023-03-23T21:39:49.247Z,99737.31
2023-03-23T21:44:50.794Z,99734.60
2023-03-23T21:49:52.318Z,99725.14
2023-03-23T21:54:54.066Z,99728.48
2023-03-23T21:59:56.012Z,99732.23
2023-03-23T22:04:57.998Z,99730.83
2023-03-23T22:10:00.187Z,99741.46
2023-03-23T22:15:02.773Z,99749.47
2023-03-23T22:20:10.999Z,99743.46
2023-03-23T22:25:13.519Z,99750.74
2023-03-23T22:30:16.284Z,99758.33
2023-03-23T22:35:18.066Z,99757.42
2023-03-23T22:40:19.770Z,99758.20
2023-03-23T22:45:23.605Z,99760.23
2023-03-23T22:50:27.783Z,99764.27
2023-03-23T22:55:29.423Z,99765.44
2023-03-23T23:00:31.002Z,99767.57
2023-03-23T23:05:32.562Z,99762.77
2023-03-23T23:10:35.635Z,99770.42
2023-03-23T23:15:40.493Z,99771.30
2023-03-23T23:20:43.451Z,99772.56
2023-03-23T23:25:46.356Z,99774.88
2023-03-23T23:30:49.339Z,99780.09
2023-03-23T23:35:52.054Z,99779.68
2023-03-23T23:40:54.185Z,99784.69
2023-03-23T23:45:56.735Z,99785.94
2023-03-23T23:50:58.372Z,99785.85
2023-03-23T23:56:04.470Z,99792.73
